createdAt,value
2023-10-06T00:01:13.937Z,12.01
2023-10-06T00:03:45.922Z,12.02
2023-10-06T00:06:23.545Z,12.00
2023-10-06T00:08:55.604Z,11.99
2023-10-06T00:11:32.711Z,12.00
2023-10-06T00:14:04.476Z,11.97
2023-10-06T00:16:40.458Z,11.95
2023-10-06T00:19:23.993Z,11.94
2023-10-06T00:22:02.304Z,11.95
2023-10-06T00:24:30.197Z,11.95
2023-10-06T00:26:58.816Z,11.96
2023-10-06T00:29:30.672Z,11.96
2023-10-06T00:32:04.810Z,11.97
2023-10-06T00:34:35.416Z,11.95
2023-10-06T00:37:13.015Z,11.92
2023-10-06T00:39:40.878Z,11.85
2023-10-06T00:42:08.904Z,11.83
2023-10-06T00:44:37.129Z,11.84
2023-10-06T00:47:07.469Z,11.84
2023-10-06T00:49:35.870Z,11.77
2023-10-06T00:52:07.967Z,11.74
2023-10-06T00:54:36.190Z,11.73
2023-10-06T00:57:09.997Z,11.67
2023-10-06T00:59:38.242Z,11.71
2023-10-06T01:02:10.338Z,11.66
2023-10-06T01:04:44.050Z,11.65
2023-10-06T01:07:15.038Z,11.64
2023-10-06T01:09:58.197Z,11.61
2023-10-06T01:12:27.339Z,11.55
2023-10-06T01:15:07.053Z,11.50
2023-10-06T01:17:35.461Z,11.48
2023-10-06T01:20:04.501Z,11.49
2023-10-06T01:22:42.784Z,11.51
2023-10-06T01:25:14.519Z,11.48
2023-10-06T01:27:45.011Z,11.45
2023-10-06T01:30:20.507Z,11.49
2023-10-06T01:32:52.200Z,11.51
2023-10-06T01:35:22.462Z,11.51
2023-10-06T01:37:59.561Z,11.51
2023-10-06T01:40:44.883Z,11.52
2023-10-06T01:43:16.407Z,11.54
2023-10-06T01:45:46.206Z,11.50
2023-10-06T01:48:28.133Z,11.44
2023-10-06T01:50:56.460Z,11.44
2023-10-06T01:53:26.635Z,11.41
2023-10-06T01:55:55.904Z,11.40
2023-10-06T01:58:23.946Z,11.37
2023-10-06T02:00:52.114Z,11.36
2023-10-06T02:03:23.194Z,11.33
2023-10-06T02:05:56.128Z,11.34
2023-10-06T02:08:26.448Z,11.36
2023-10-06T02:10:56.517Z,11.40
2023-10-06T02:13:24.801Z,11.41
2023-10-06T02:16:00.602Z,11.41
2023-10-06T02:18:37.052Z,11.40
2023-10-06T02:21:11.896Z,11.37
2023-10-06T02:23:42.699Z,11.35
2023-10-06T02:26:13.618Z,11.37
2023-10-06T02:28:45.364Z,11.43
2023-10-06T02:31:13.954Z,11.45
2023-10-06T02:33:42.751Z,11.47
2023-10-06T02:36:19.297Z,11.51
2023-10-06T02:38:49.533Z,11.50
2023-10-06T02:41:22.012Z,11.47
2023-10-06T02:43:50.882Z,11.51
2023-10-06T02:46:22.701Z,11.53
2023-10-06T02:48:51.286Z,11.53
2023-10-06T02:51:30.277Z,11.56
2023-10-06T02:54:14.966Z,11.57
2023-10-06T02:56:44.916Z,11.56
2023-10-06T02:59:23.329Z,11.57
2023-10-06T03:01:56.848Z,11.51
2023-10-06T03:04:27.969Z,11.50
2023-10-06T03:06:58.362Z,11.51
2023-10-06T03:09:38.352Z,11.49
2023-10-06T03:12:13.149Z,11.45
2023-10-06T03:14:41.181Z,11.37
2023-10-06T03:17:10.488Z,11.35
2023-10-06T03:19:42.158Z,11.33
2023-10-06T03:22:13.715Z,11.32
2023-10-06T03:24:54.382Z,11.27
2023-10-06T03:27:24.834Z,11.22
2023-10-06T03:29:55.632Z,11.21
2023-10-06T03:32:34.045Z,11.25
2023-10-06T03:35:13.081Z,11.29
2023-10-06T03:37:46.394Z,11.30
2023-10-06T03:40:23.692Z,11.29
2023-10-06T03:42:54.001Z,11.31
2023-10-06T03:45:28.537Z,11.30
2023-10-06T03:48:09.807Z,11.30
2023-10-06T03:50:43.385Z,11.32
2023-10-06T03:53:14.473Z,11.33
2023-10-06T03:55:46.642Z,11.28
2023-10-06T03:58:17.767Z,11.22
2023-10-06T04:00:49.824Z,11.20
2023-10-06T04:03:19.199Z,11.17
2023-10-06T04:05:49.788Z,11.18
2023-10-06T04:08:20.363Z,11.15
2023-10-06T04:10:53.190Z,11.10
2023-10-06T04:13:22.379Z,11.06
2023-10-06T04:15:51.991Z,11.05
2023-10-06T04:18:23.396Z,11.07
2023-10-06T04:20:52.473Z,11.07
2023-10-06T04:23:24.184Z,11.07
2023-10-06T04:25:57.788Z,11.05
2023-10-06T04:28:27.627Z,11.02
2023-10-06T04:30:59.338Z,11.02
2023-10-06T04:33:29.739Z,10.99
2023-10-06T04:36:01.191Z,11.02
2023-10-06T04:38:30.846Z,10.96
2023-10-06T04:41:01.098Z,10.96
2023-10-06T04:43:29.132Z,10.96
2023-10-06T04:45:57.516Z,10.98
2023-10-06T04:48:25.620Z,11.01
2023-10-06T04:50:53.592Z,11.01
2023-10-06T04:53:22.161Z,11.01
2023-10-06T04:55:49.998Z,11.01
2023-10-06T04:58:19.923Z,10.97
2023-10-06T05:00:54.347Z,10.93
2023-10-06T05:03:22.482Z,10.90
2023-10-06T05:05:52.063Z,10.95
2023-10-06T05:08:20.104Z,10.97
2023-10-06T05:10:48.206Z,10.97
2023-10-06T05:13:17.715Z,10.99
2023-10-06T05:15:47.241Z,11.01
2023-10-06T05:18:17.369Z,11.00
2023-10-06T05:20:47.720Z,11.02
2023-10-06T05:23:16.827Z,11.03
2023-10-06T05:25:47.003Z,11.05
2023-10-06T05:28:18.281Z,11.08
2023-10-06T05:30:47.900Z,11.11
2023-10-06T05:33:16.570Z,11.15
2023-10-06T05:35:46.845Z,11.17
2023-10-06T05:38:15.540Z,11.18
2023-10-06T05:40:45.072Z,11.20
2023-10-06T05:43:14.188Z,11.19
2023-10-06T05:45:43.037Z,11.21
2023-10-06T05:48:13.593Z,11.21
2023-10-06T05:50:42.639Z,11.21
2023-10-06T05:53:13.986Z,11.19
2023-10-06T05:55:43.711Z,11.11
2023-10-06T05:58:15.663Z,10.97
2023-10-06T06:00:52.293Z,10.97
2023-10-06T06:03:22.961Z,10.93
2023-10-06T06:05:51.394Z,10.95
2023-10-06T06:08:19.801Z,10.96
2023-10-06T06:10:48.013Z,10.96
2023-10-06T06:13:15.989Z,11.01
2023-10-06T06:15:43.862Z,11.03
2023-10-06T06:18:13.987Z,11.07
2023-10-06T06:20:43.664Z,11.09
2023-10-06T06:23:13.956Z,11.08
2023-10-06T06:25:43.252Z,11.10
2023-10-06T06:28:13.560Z,11.11
2023-10-06T06:30:42.443Z,11.04
2023-10-06T06:33:14.223Z,11.06
2023-10-06T06:35:44.344Z,11.06
2023-10-06T06:38:14.389Z,11.07
2023-10-06T06:40:43.119Z,11.04
2023-10-06T06:43:11.791Z,11.06
2023-10-06T06:45:42.211Z,11.04
2023-10-06T06:48:14.742Z,10.98
2023-10-06T06:50:45.149Z,10.93
2023-10-06T06:53:14.081Z,10.85
2023-10-06T06:55:44.793Z,10.83
2023-10-06T06:58:13.408Z,10.85
2023-10-06T07:00:42.167Z,10.87
2023-10-06T07:03:12.447Z,10.95
2023-10-06T07:05:41.176Z,10.97
2023-10-06T07:08:10.575Z,10.95
2023-10-06T07:10:40.601Z,10.89
2023-10-06T07:13:08.698Z,10.90
2023-10-06T07:15:36.676Z,10.87
2023-10-06T07:18:05.328Z,10.85
2023-10-06T07:20:34.131Z,10.88
2023-10-06T07:23:02.671Z,10.92
2023-10-06T07:25:32.581Z,10.99
2023-10-06T07:28:01.581Z,10.93
2023-10-06T07:30:30.612Z,10.99
2023-10-06T07:32:58.676Z,11.03
2023-10-06T07:35:32.275Z,11.05
2023-10-06T07:38:00.773Z,11.08
2023-10-06T07:40:29.113Z,11.15
2023-10-06T07:42:59.142Z,11.19
2023-10-06T07:45:28.157Z,11.19
2023-10-06T07:47:56.529Z,11.18
2023-10-06T07:50:27.741Z,11.24
2023-10-06T07:52:55.784Z,11.29
2023-10-06T07:55:24.419Z,11.32
2023-10-06T07:57:52.648Z,11.31
2023-10-06T08:00:28.998Z,11.30
2023-10-06T08:02:57.080Z,11.31
2023-10-06T08:05:27.047Z,11.31
2023-10-06T08:07:58.522Z,11.34
2023-10-06T08:10:26.882Z,11.39
2023-10-06T08:12:57.906Z,11.36
2023-10-06T08:15:28.979Z,11.38
2023-10-06T08:17:57.941Z,11.39
2023-10-06T08:20:27.162Z,11.44
2023-10-06T08:22:55.895Z,11.50
2023-10-06T08:25:25.301Z,11.55
2023-10-06T08:27:53.895Z,11.55
2023-10-06T08:30:22.694Z,11.54
2023-10-06T08:32:54.176Z,11.54
2023-10-06T08:35:23.053Z,11.54
2023-10-06T08:37:53.065Z,11.54
2023-10-06T08:40:24.552Z,11.53
2023-10-06T08:42:53.728Z,11.49
2023-10-06T08:45:25.482Z,11.47
2023-10-06T08:48:02.224Z,11.48
2023-10-06T08:50:32.871Z,11.51
2023-10-06T08:53:02.581Z,11.54
2023-10-06T08:55:30.971Z,11.59
2023-10-06T08:58:04.167Z,11.64
2023-10-06T09:00:35.988Z,11.63
2023-10-06T09:03:10.725Z,11.61
2023-10-06T09:05:41.099Z,11.60
2023-10-06T09:08:10.397Z,11.55
2023-10-06T09:10:41.781Z,11.53
2023-10-06T09:13:12.453Z,11.48
2023-10-06T09:15:42.568Z,11.46
2023-10-06T09:18:23.154Z,11.41
2023-10-06T09:20:52.356Z,11.43
2023-10-06T09:23:33.711Z,11.41
2023-10-06T09:26:02.698Z,11.42
2023-10-06T09:28:32.403Z,11.42
2023-10-06T09:31:02.748Z,11.45
2023-10-06T09:33:45.628Z,11.44
2023-10-06T09:36:32.156Z,11.45
2023-10-06T09:39:07.888Z,11.51
2023-10-06T09:41:37.751Z,11.58
2023-10-06T09:44:10.664Z,11.65
2023-10-06T09:46:42.976Z,11.70
2023-10-06T09:49:17.659Z,11.77
2023-10-06T09:51:47.192Z,11.85
2023-10-06T09:54:16.757Z,11.89
2023-10-06T09:56:44.827Z,11.93
2023-10-06T09:59:13.879Z,11.96
2023-10-06T10:01:43.758Z,11.96
2023-10-06T10:04:14.092Z,11.98
2023-10-06T10:06:45.244Z,11.98
2023-10-06T10:12:18.893Z,11.99
2023-10-06T10:15:02.078Z,12.04
2023-10-06T10:17:38.081Z,12.11
2023-10-06T10:20:11.020Z,12.15
2023-10-06T10:22:42.131Z,12.20
2023-10-06T10:27:41.712Z,12.35
2023-10-06T10:30:11.115Z,12.45
2023-10-06T10:32:44.023Z,12.52
2023-10-06T10:35:18.456Z,12.63
2023-10-06T10:38:04.302Z,12.71
2023-10-06T10:40:48.229Z,12.79
2023-10-06T10:43:17.674Z,12.88
2023-10-06T10:45:46.168Z,12.96
2023-10-06T10:48:16.356Z,13.01
2023-10-06T10:51:04.047Z,13.12
2023-10-06T10:53:34.809Z,13.35
2023-10-06T10:56:05.427Z,13.64
2023-10-06T10:58:58.759Z,13.77
2023-10-06T11:01:31.235Z,13.74
2023-10-06T11:04:23.004Z,13.70
2023-10-06T11:06:53.305Z,13.63
2023-10-06T11:09:28.010Z,13.59
2023-10-06T11:12:11.762Z,13.58
2023-10-06T11:14:47.255Z,13.67
2023-10-06T11:17:15.680Z,13.80
2023-10-06T11:19:43.653Z,14.01
2023-10-06T11:22:14.889Z,14.15
2023-10-06T11:24:45.618Z,14.28
2023-10-06T11:27:17.900Z,14.33
2023-10-06T11:29:47.421Z,14.35
2023-10-06T11:32:16.490Z,14.32
2023-10-06T11:34:45.872Z,14.29
2023-10-06T11:37:15.430Z,14.23
2023-10-06T11:39:44.193Z,14.17
2023-10-06T11:42:39.388Z,14.05
2023-10-06T11:45:13.019Z,14.04
2023-10-06T11:47:42.220Z,14.17
2023-10-06T11:50:23.948Z,14.32
2023-10-06T11:52:54.304Z,14.47
2023-10-06T11:55:32.679Z,14.68
2023-10-06T11:58:05.971Z,14.90
2023-10-06T12:00:41.789Z,15.11
2023-10-06T12:03:12.991Z,15.17
2023-10-06T12:05:43.621Z,15.15
2023-10-06T12:08:15.735Z,15.12
2023-10-06T12:10:51.777Z,15.15
2023-10-06T12:13:20.480Z,15.04
2023-10-06T12:15:48.871Z,14.93
2023-10-06T12:18:18.704Z,14.86
2023-10-06T12:20:46.645Z,14.84
2023-10-06T12:23:16.080Z,14.79
2023-10-06T12:25:44.080Z,14.79
2023-10-06T12:28:17.776Z,14.86
2023-10-06T12:30:46.024Z,14.98
2023-10-06T12:33:15.522Z,15.10
2023-10-06T12:35:44.096Z,15.22
2023-10-06T12:38:16.213Z,15.30
2023-10-06T12:40:48.235Z,15.31
2023-10-06T12:43:17.826Z,15.32
2023-10-06T12:45:45.793Z,15.43
2023-10-06T12:48:15.065Z,15.55
2023-10-06T12:50:43.785Z,15.72
2023-10-06T12:53:12.931Z,15.87
2023-10-06T12:55:44.304Z,16.04
2023-10-06T12:58:16.392Z,16.10
2023-10-06T13:00:45.245Z,16.09
2023-10-06T13:03:17.752Z,16.04
2023-10-06T13:05:46.787Z,15.98
2023-10-06T13:08:18.233Z,15.97
2023-10-06T13:10:48.366Z,15.99
2023-10-06T13:13:17.863Z,16.13
2023-10-06T13:15:47.487Z,16.27
2023-10-06T13:18:17.426Z,16.38
2023-10-06T13:20:45.430Z,16.41
2023-10-06T13:23:13.453Z,16.40
2023-10-06T13:25:42.840Z,16.39
2023-10-06T13:28:16.465Z,16.45
2023-10-06T13:30:45.639Z,16.48
2023-10-06T13:33:16.054Z,16.48
2023-10-06T13:35:45.130Z,16.51
2023-10-06T13:38:14.648Z,16.57
2023-10-06T13:40:46.298Z,16.57
2023-10-06T13:43:16.461Z,16.57
2023-10-06T13:45:46.592Z,16.50
2023-10-06T13:48:17.063Z,16.47
2023-10-06T13:50:47.248Z,16.51
2023-10-06T13:53:16.580Z,16.54
2023-10-06T13:55:45.926Z,16.55
2023-10-06T13:58:15.803Z,16.54
2023-10-06T14:00:43.878Z,16.48
2023-10-06T14:03:15.308Z,16.43
2023-10-06T14:05:44.990Z,16.34
2023-10-06T14:08:15.483Z,16.32
2023-10-06T14:10:44.119Z,16.31
2023-10-06T14:13:18.105Z,16.28
2023-10-06T14:15:50.819Z,16.27
2023-10-06T14:18:23.699Z,16.31
2023-10-06T14:20:52.053Z,16.30
2023-10-06T14:23:25.360Z,16.26
2023-10-06T14:25:57.440Z,16.15
2023-10-06T14:28:25.515Z,16.07
2023-10-06T14:30:57.439Z,15.93
2023-10-06T14:33:29.662Z,15.81
2023-10-06T14:39:08.906Z,15.76
2023-10-06T14:41:54.309Z,15.76
2023-10-06T14:44:39.940Z,15.74
2023-10-06T14:47:11.094Z,15.70
2023-10-06T14:49:44.382Z,15.66
2023-10-06T14:52:14.307Z,15.63
2023-10-06T14:54:45.088Z,15.61
2023-10-06T14:57:14.119Z,15.60
2023-10-06T14:59:44.246Z,15.54
2023-10-06T15:02:12.691Z,15.52
2023-10-06T15:04:41.518Z,15.53
2023-10-06T15:07:16.410Z,15.50
2023-10-06T15:09:45.713Z,15.51
2023-10-06T15:12:15.900Z,15.51
2023-10-06T15:14:45.817Z,15.52
2023-10-06T15:17:15.804Z,15.52
2023-10-06T15:19:47.697Z,15.50
2023-10-06T15:22:16.030Z,15.50
2023-10-06T15:24:45.510Z,15.51
2023-10-06T15:27:13.549Z,15.51
2023-10-06T15:29:42.972Z,15.49
2023-10-06T15:32:13.322Z,15.49
2023-10-06T15:34:41.737Z,15.48
2023-10-06T15:37:10.020Z,15.44
2023-10-06T15:39:37.869Z,15.43
2023-10-06T15:42:09.942Z,15.43
2023-10-06T15:44:38.902Z,15.42
2023-10-06T15:47:09.108Z,15.40
2023-10-06T15:49:38.930Z,15.40
2023-10-06T15:52:07.005Z,15.40
2023-10-06T15:54:34.947Z,15.39
2023-10-06T15:57:03.057Z,15.36
2023-10-06T15:59:32.469Z,15.36
2023-10-06T16:02:01.587Z,15.34
2023-10-06T16:04:29.541Z,15.34
2023-10-06T16:06:59.850Z,15.33
2023-10-06T16:09:28.002Z,15.31
2023-10-06T16:11:56.177Z,15.28
2023-10-06T16:14:24.233Z,15.25
2023-10-06T16:16:54.391Z,15.26
2023-10-06T16:19:23.082Z,15.23
2023-10-06T16:21:53.350Z,15.21
2023-10-06T16:24:21.494Z,15.19
2023-10-06T16:26:49.472Z,15.17
2023-10-06T16:29:17.840Z,15.14
2023-10-06T16:31:46.968Z,15.13
2023-10-06T16:34:16.466Z,15.10
2023-10-06T16:36:44.423Z,15.08
2023-10-06T16:39:22.657Z,15.10
2023-10-06T16:41:51.779Z,15.09
2023-10-06T16:44:22.232Z,15.06
2023-10-06T16:46:50.554Z,15.04
2023-10-06T16:49:19.966Z,14.99
2023-10-06T16:51:48.150Z,15.01
2023-10-06T16:54:16.671Z,15.01
2023-10-06T16:56:45.227Z,15.01
2023-10-06T16:59:14.573Z,15.00
2023-10-06T17:01:44.397Z,14.99
2023-10-06T17:04:16.147Z,14.97
2023-10-06T17:06:46.971Z,14.96
2023-10-06T17:09:18.259Z,14.96
2023-10-06T17:11:46.220Z,14.94
2023-10-06T17:14:15.005Z,14.93
2023-10-06T17:16:43.257Z,14.94
2023-10-06T17:19:13.275Z,14.93
2023-10-06T17:21:43.778Z,14.94
2023-10-06T17:24:13.832Z,14.92
2023-10-06T17:26:43.595Z,14.91
2023-10-06T17:29:13.131Z,14.90
2023-10-06T17:31:41.389Z,14.91
2023-10-06T17:34:09.520Z,14.91
2023-10-06T17:36:37.515Z,14.88
2023-10-06T17:39:06.461Z,14.86
2023-10-06T17:41:36.299Z,14.84
2023-10-06T17:44:05.060Z,14.81
2023-10-06T17:46:33.551Z,14.81
2023-10-06T17:49:01.531Z,14.81
2023-10-06T17:51:29.922Z,14.80
2023-10-06T17:53:57.810Z,14.80
2023-10-06T17:56:25.740Z,14.80
2023-10-06T17:58:55.125Z,14.80
2023-10-06T18:01:24.120Z,14.79
2023-10-06T18:03:52.216Z,14.78
2023-10-06T18:06:20.303Z,14.74
2023-10-06T18:08:50.264Z,14.73
2023-10-06T18:11:18.280Z,14.72
2023-10-06T18:13:46.364Z,14.68
2023-10-06T18:16:15.840Z,14.69
2023-10-06T18:18:43.909Z,14.69
2023-10-06T18:21:11.851Z,14.69
2023-10-06T18:23:39.769Z,14.69
2023-10-06T18:26:12.950Z,14.68
2023-10-06T18:28:41.815Z,14.69
2023-10-06T18:31:10.393Z,14.68
2023-10-06T18:33:39.787Z,14.68
2023-10-06T18:36:11.396Z,14.69
2023-10-06T18:38:39.882Z,14.68
2023-10-06T18:41:09.163Z,14.68
2023-10-06T18:43:37.224Z,14.68
2023-10-06T18:46:07.239Z,14.66
2023-10-06T18:48:35.443Z,14.66
2023-10-06T18:51:05.356Z,14.68
2023-10-06T18:53:36.059Z,14.67
2023-10-06T18:56:05.753Z,14.70
2023-10-06T18:58:33.698Z,14.69
2023-10-06T19:01:04.377Z,14.67
2023-10-06T19:03:32.854Z,14.69
2023-10-06T19:06:04.457Z,14.69
2023-10-06T19:08:37.843Z,14.71
2023-10-06T19:11:11.064Z,14.72
2023-10-06T19:13:39.329Z,14.73
2023-10-06T19:16:11.357Z,14.75
2023-10-06T19:18:39.945Z,14.76
2023-10-06T19:21:08.103Z,14.77
2023-10-06T19:23:39.005Z,14.76
2023-10-06T19:26:09.346Z,14.77
2023-10-06T19:28:37.730Z,14.76
2023-10-06T19:31:06.742Z,14.76
2023-10-06T19:33:35.211Z,14.78
2023-10-06T19:36:05.731Z,14.78
2023-10-06T19:38:34.349Z,14.78
2023-10-06T19:41:04.541Z,14.80
2023-10-06T19:43:34.157Z,14.80
2023-10-06T19:46:02.236Z,14.78
2023-10-06T19:48:30.085Z,14.78
2023-10-06T19:50:58.040Z,14.76
2023-10-06T19:53:26.172Z,14.76
2023-10-06T19:55:55.249Z,14.79
2023-10-06T19:58:24.709Z,14.79
2023-10-06T20:00:52.879Z,14.78
2023-10-06T20:03:21.079Z,14.78
2023-10-06T20:05:50.106Z,14.76
2023-10-06T20:08:18.089Z,14.75
2023-10-06T20:10:45.995Z,14.73
2023-10-06T20:13:14.092Z,14.71
2023-10-06T20:15:43.851Z,14.70
2023-10-06T20:18:14.364Z,14.68
2023-10-06T20:20:44.145Z,14.67
2023-10-06T20:23:12.048Z,14.67
2023-10-06T20:25:41.897Z,14.68
2023-10-06T20:28:11.138Z,14.69
2023-10-06T20:30:40.544Z,14.67
2023-10-06T20:33:10.176Z,14.66
2023-10-06T20:35:39.895Z,14.63
2023-10-06T20:38:08.000Z,14.62
2023-10-06T20:40:36.021Z,14.61
2023-10-06T20:43:08.013Z,14.63
2023-10-06T20:45:38.094Z,14.62
2023-10-06T20:48:07.579Z,14.62
2023-10-06T20:50:39.786Z,14.61
2023-10-06T20:53:08.895Z,14.59
2023-10-06T20:55:37.469Z,14.60
2023-10-06T20:58:05.929Z,14.59
2023-10-06T21:00:33.859Z,14.54
2023-10-06T21:03:02.771Z,14.49
2023-10-06T21:05:30.885Z,14.38
2023-10-06T21:08:00.185Z,14.28
2023-10-06T21:10:28.428Z,14.16
2023-10-06T21:12:56.580Z,14.04
2023-10-06T21:15:25.982Z,13.98
2023-10-06T21:17:55.915Z,13.85
2023-10-06T21:20:24.402Z,13.78
2023-10-06T21:22:52.624Z,13.75
2023-10-06T21:25:22.325Z,13.70
2023-10-06T21:27:50.313Z,13.65
2023-10-06T21:30:18.285Z,13.60
2023-10-06T21:32:46.967Z,13.59
2023-10-06T21:35:15.614Z,13.54
2023-10-06T21:37:46.074Z,13.51
2023-10-06T21:40:14.535Z,13.53
2023-10-06T21:42:44.306Z,13.56
2023-10-06T21:45:13.103Z,13.53
2023-10-06T21:47:41.135Z,13.50
2023-10-06T21:50:10.682Z,13.47
2023-10-06T21:52:41.772Z,13.44
2023-10-06T21:55:10.700Z,13.39
2023-10-06T21:57:39.511Z,13.37
2023-10-06T22:00:26.435Z,13.36
2023-10-06T22:02:55.262Z,13.34
2023-10-06T22:05:23.717Z,13.29
2023-10-06T22:07:52.028Z,13.31
2023-10-06T22:10:20.354Z,13.27
2023-10-06T22:12:50.073Z,13.29
2023-10-06T22:15:19.285Z,13.28
2023-10-06T22:17:48.302Z,13.27
2023-10-06T22:20:16.586Z,13.31
2023-10-06T22:22:44.667Z,13.32
2023-10-06T22:25:14.684Z,13.34
2023-10-06T22:27:43.956Z,13.32
2023-10-06T22:30:13.630Z,13.36
2023-10-06T22:32:43.314Z,13.37
2023-10-06T22:35:12.206Z,13.39
2023-10-06T22:37:40.091Z,13.38
2023-10-06T22:40:17.954Z,13.39
2023-10-06T22:42:48.835Z,13.42
2023-10-06T22:45:17.480Z,13.44
2023-10-06T22:47:49.618Z,13.46
2023-10-06T22:50:20.464Z,13.46
2023-10-06T22:52:49.829Z,13.48
2023-10-06T22:55:20.102Z,13.52
2023-10-06T22:57:50.051Z,13.54
2023-10-06T23:00:19.240Z,13.57
2023-10-06T23:02:49.624Z,13.59
2023-10-06T23:05:17.769Z,13.60
2023-10-06T23:07:48.262Z,13.62
2023-10-06T23:10:18.565Z,13.63
2023-10-06T23:12:50.604Z,13.64
2023-10-06T23:15:19.130Z,13.65
2023-10-06T23:17:50.588Z,13.67
2023-10-06T23:20:25.394Z,13.67
2023-10-06T23:22:56.000Z,13.67
2023-10-06T23:25:25.579Z,13.68
2023-10-06T23:27:54.168Z,13.69
2023-10-06T23:30:23.820Z,13.70
2023-10-06T23:32:53.339Z,13.77
2023-10-06T23:35:21.178Z,13.81
2023-10-06T23:37:56.185Z,13.81
2023-10-06T23:40:24.571Z,13.84
2023-10-06T23:42:53.599Z,13.84
2023-10-06T23:45:20.669Z,13.86
2023-10-06T23:47:49.286Z,13.86
2023-10-06T23:50:21.766Z,13.88
2023-10-06T23:52:52.778Z,13.90
2023-10-06T23:55:23.326Z,13.91
2023-10-06T23:57:52.151Z,13.92
